createdAt,value
2023-01-03T00:00:02.472Z,91.40
2023-01-03T00:01:02.359Z,91.50
2023-01-03T00:02:02.346Z,91.20
2023-01-03T00:03:02.301Z,91.82
2023-01-03T00:04:02.312Z,91.61
2023-01-03T00:05:02.266Z,91.82
2023-01-03T00:06:02.233Z,92.22
2023-01-03T00:07:02.143Z,92.83
2023-01-03T00:08:02.102Z,93.15
2023-01-03T00:09:02.088Z,93.08
2023-01-03T00:10:02.042Z,92.83
2023-01-03T00:11:01.997Z,93.60
2023-01-03T00:12:02.035Z,93.70
2023-01-03T00:13:01.938Z,93.90
2023-01-03T00:14:01.910Z,94.32
2023-01-03T00:15:01.885Z,94.93
2023-01-03T00:16:01.873Z,94.93
2023-01-03T00:17:01.844Z,93.85
2023-01-03T00:18:01.835Z,93.90
2023-01-03T00:19:01.751Z,93.44
2023-01-03T00:20:01.723Z,93.95
2023-01-03T00:21:01.670Z,93.95
2023-01-03T00:22:01.649Z,93.64
2023-01-03T00:23:01.655Z,93.44
2023-01-03T00:24:01.571Z,93.23
2023-01-03T00:25:01.539Z,93.54
2023-01-03T00:26:01.517Z,93.23
2023-01-03T00:27:01.492Z,93.02
2023-01-03T00:28:01.436Z,93.33
2023-01-03T00:29:01.463Z,93.02
2023-01-03T00:30:01.398Z,93.44
2023-01-03T00:31:01.386Z,93.13
2023-01-03T00:32:01.299Z,93.13
2023-01-03T00:33:01.260Z,92.82
2023-01-03T00:34:01.236Z,93.54
2023-01-03T00:35:05.001Z,93.33
2023-01-03T00:36:01.193Z,93.33
2023-01-03T00:37:01.135Z,93.74
2023-01-03T00:38:01.106Z,94.05
2023-01-03T00:39:01.143Z,94.10
2023-01-03T00:40:01.031Z,93.89
2023-01-03T00:41:01.059Z,93.99
2023-01-03T00:42:00.950Z,94.20
2023-01-03T00:43:00.945Z,95.23
2023-01-03T00:44:00.898Z,94.76
2023-01-03T00:45:00.867Z,95.47
2023-01-03T00:46:00.863Z,95.47
2023-01-03T00:47:00.883Z,94.55
2023-01-03T00:48:00.754Z,95.06
2023-01-03T00:49:00.726Z,95.98
2023-01-03T00:50:00.695Z,95.62
2023-01-03T00:51:00.686Z,95.72
2023-01-03T00:52:00.658Z,96.14
2023-01-03T00:53:00.651Z,96.44
2023-01-03T00:54:00.559Z,96.34
2023-01-03T00:55:00.527Z,96.08
2023-01-03T00:56:00.491Z,96.39
2023-01-03T00:57:00.462Z,96.69
2023-01-03T00:58:00.429Z,97.52
2023-01-03T00:59:00.475Z,97.15
2023-01-03T01:00:00.348Z,97.66
2023-01-03T01:01:00.345Z,98.07
2023-01-03T01:02:00.481Z,98.28
2023-01-03T01:03:00.442Z,98.28
2023-01-03T01:04:00.257Z,98.24
2023-01-03T01:05:00.250Z,98.33
2023-01-03T01:06:00.141Z,98.24
2023-01-03T01:07:00.148Z,97.77
2023-01-03T01:08:00.105Z,97.72
2023-01-03T01:09:00.060Z,97.10
2023-01-03T01:10:00.011Z,97.10
2023-01-03T01:11:00.035Z,97.20
2023-01-03T01:11:59.952Z,96.90
2023-01-03T01:12:59.920Z,96.80
2023-01-03T01:13:59.887Z,96.39
2023-01-03T01:14:59.844Z,96.28
2023-01-03T01:15:59.842Z,96.28
2023-01-03T01:16:59.833Z,96.18
2023-01-03T01:17:59.737Z,96.48
2023-01-03T01:18:59.728Z,96.59
2023-01-03T01:19:59.677Z,96.08
2023-01-03T01:20:59.651Z,95.77
2023-01-03T01:21:59.602Z,95.77
2023-01-03T01:22:59.634Z,96.02
2023-01-03T01:23:59.531Z,95.61
2023-01-03T01:24:59.502Z,95.77
2023-01-03T01:25:59.472Z,96.12
2023-01-03T01:26:59.437Z,96.43
2023-01-03T01:27:59.466Z,96.94
2023-01-03T01:28:59.362Z,96.28
2023-01-03T01:29:59.322Z,96.39
2023-01-03T01:30:59.308Z,95.92
2023-01-03T01:31:59.264Z,95.71
2023-01-03T01:32:59.225Z,95.97
2023-01-03T01:33:59.231Z,95.97
2023-01-03T01:34:59.150Z,95.87
2023-01-03T01:35:59.119Z,95.72
2023-01-03T01:36:59.083Z,95.62
2023-01-03T01:37:59.074Z,95.83
2023-01-03T01:38:59.032Z,96.03
2023-01-03T01:39:59.045Z,94.90
2023-01-03T01:40:58.955Z,95.52
2023-01-03T01:41:58.929Z,95.52
2023-01-03T01:42:58.880Z,95.52
2023-01-03T01:43:58.845Z,95.67
2023-01-03T01:44:58.828Z,95.52
2023-01-03T01:45:58.844Z,96.03
2023-01-03T01:46:58.761Z,95.56
2023-01-03T01:47:58.705Z,95.87
2023-01-03T01:48:58.680Z,96.48
2023-01-03T01:49:58.709Z,96.28
2023-01-03T01:50:58.596Z,96.39
2023-01-03T01:51:58.625Z,96.08
2023-01-03T01:52:58.535Z,96.80
2023-01-03T01:53:58.517Z,96.80
2023-01-03T01:54:58.475Z,96.69
2023-01-03T01:55:58.433Z,96.22
2023-01-03T01:56:58.402Z,95.97
2023-01-03T01:57:58.433Z,96.33
2023-01-03T01:58:58.337Z,96.12
2023-01-03T01:59:58.303Z,96.73
2023-01-03T02:00:58.279Z,96.89
2023-01-03T02:01:58.362Z,96.47
2023-01-03T02:02:58.328Z,96.68
2023-01-03T02:03:58.229Z,96.68
2023-01-03T02:04:58.124Z,96.68
2023-01-03T02:05:58.095Z,96.68
2023-01-03T02:06:58.082Z,96.89
2023-01-03T02:07:58.882Z,96.72
2023-01-03T02:08:58.066Z,96.52
2023-01-03T02:09:58.037Z,95.90
2023-01-03T02:10:58.002Z,95.70
2023-01-03T02:11:57.885Z,95.59
2023-01-03T02:12:57.843Z,95.90
2023-01-03T02:13:57.820Z,95.80
2023-01-03T02:14:57.788Z,96.00
2023-01-03T02:15:57.884Z,95.95
2023-01-03T02:16:57.707Z,96.05
2023-01-03T02:17:57.670Z,95.84
2023-01-03T02:18:57.704Z,95.43
2023-01-03T02:19:57.627Z,95.33
2023-01-03T02:20:57.581Z,96.25
2023-01-03T02:21:57.623Z,95.78
2023-01-03T02:22:57.512Z,95.68
2023-01-03T02:23:57.542Z,95.68
2023-01-03T02:24:57.433Z,94.85
2023-01-03T02:25:57.407Z,95.17
2023-01-03T02:26:57.364Z,95.17
2023-01-03T02:27:57.396Z,94.96
2023-01-03T02:28:57.299Z,95.58
2023-01-03T02:29:57.329Z,95.68
2023-01-03T02:30:57.271Z,95.78
2023-01-03T02:31:57.191Z,95.21
2023-01-03T02:32:57.162Z,94.96
2023-01-03T02:33:57.203Z,95.62
2023-01-03T02:34:57.111Z,95.42
2023-01-03T02:35:57.052Z,95.52
2023-01-03T02:36:57.018Z,95.31
2023-01-03T02:37:56.982Z,95.42
2023-01-03T02:38:56.944Z,95.31
2023-01-03T02:39:56.978Z,95.56
2023-01-03T02:40:56.882Z,95.77
2023-01-03T02:41:56.844Z,95.98
2023-01-03T02:42:56.812Z,95.98
2023-01-03T02:43:56.764Z,96.08
2023-01-03T02:44:56.787Z,95.87
2023-01-03T02:45:56.772Z,95.98
2023-01-03T02:46:56.762Z,95.98
2023-01-03T02:47:56.679Z,96.08
2023-01-03T02:48:56.601Z,96.18
2023-01-03T02:49:56.565Z,96.12
2023-01-03T02:50:56.631Z,96.23
2023-01-03T02:51:56.513Z,96.12
2023-01-03T02:52:56.476Z,96.02
2023-01-03T02:53:56.476Z,96.44
2023-01-03T02:54:56.423Z,95.40
2023-01-03T02:55:56.382Z,95.36
2023-01-03T02:56:56.397Z,95.25
2023-01-03T02:57:56.274Z,95.87
2023-01-03T02:58:56.322Z,95.05
2023-01-03T02:59:56.888Z,95.25
2023-01-03T03:00:56.197Z,94.74
2023-01-03T03:01:56.264Z,94.23
2023-01-03T03:02:56.325Z,94.74
2023-01-03T03:03:56.163Z,94.23
2023-01-03T03:04:56.144Z,93.71
2023-01-03T03:05:56.016Z,94.02
2023-01-03T03:06:55.997Z,93.60
2023-01-03T03:07:55.959Z,93.30
2023-01-03T03:08:55.981Z,92.88
2023-01-03T03:09:55.942Z,92.99
2023-01-03T03:10:55.841Z,92.68
2023-01-03T03:11:55.787Z,92.68
2023-01-03T03:12:55.774Z,92.37
2023-01-03T03:13:55.717Z,92.27
2023-01-03T03:14:55.766Z,92.37
2023-01-03T03:15:55.674Z,92.16
2023-01-03T03:16:55.619Z,92.16
2023-01-03T03:17:55.589Z,92.16
2023-01-03T03:18:55.550Z,92.27
2023-01-03T03:19:55.609Z,91.96
2023-01-03T03:20:55.479Z,92.00
2023-01-03T03:21:55.433Z,92.21
2023-01-03T03:22:55.437Z,92.72
2023-01-03T03:23:55.358Z,92.82
2023-01-03T03:24:55.332Z,92.61
2023-01-03T03:25:55.437Z,92.82
2023-01-03T03:26:55.265Z,92.21
2023-01-03T03:27:55.220Z,92.31
2023-01-03T03:28:55.187Z,92.93
2023-01-03T03:29:55.161Z,92.41
2023-01-03T03:30:55.161Z,92.55
2023-01-03T03:31:55.188Z,92.66
2023-01-03T03:32:55.038Z,92.86
2023-01-03T03:33:55.017Z,92.55
2023-01-03T03:34:54.977Z,93.07
2023-01-03T03:35:54.943Z,93.22
2023-01-03T03:36:54.907Z,93.59
2023-01-03T03:37:54.926Z,93.73
2023-01-03T03:38:54.832Z,93.59
2023-01-03T03:39:54.819Z,93.69
2023-01-03T03:40:54.756Z,93.18
2023-01-03T03:41:54.733Z,93.53
2023-01-03T03:42:54.704Z,93.69
2023-01-03T03:43:54.712Z,93.73
2023-01-03T03:44:54.631Z,93.73
2023-01-03T03:45:54.595Z,93.84
2023-01-03T03:46:55.294Z,93.73
2023-01-03T03:47:54.527Z,93.94
2023-01-03T03:48:54.494Z,93.73
2023-01-03T03:49:54.440Z,93.84
2023-01-03T03:50:54.406Z,93.53
2023-01-03T03:51:54.384Z,93.53
2023-01-03T03:52:54.910Z,93.49
2023-01-03T03:53:54.335Z,93.59
2023-01-03T03:54:54.301Z,93.69
2023-01-03T03:55:54.242Z,93.59
2023-01-03T03:56:54.208Z,93.59
2023-01-03T03:57:54.260Z,93.63
2023-01-03T03:58:54.222Z,93.49
2023-01-03T03:59:54.137Z,93.49
2023-01-03T04:00:54.094Z,93.53
2023-01-03T04:01:54.189Z,93.59
2023-01-03T04:02:54.150Z,93.69
2023-01-03T04:03:54.096Z,93.73
2023-01-03T04:04:54.042Z,93.63
2023-01-03T04:05:53.872Z,93.63
2023-01-03T04:06:53.827Z,93.43
2023-01-03T04:07:53.794Z,93.73
2023-01-03T04:08:53.765Z,93.94
2023-01-03T04:09:53.730Z,94.04
2023-01-03T04:10:53.772Z,94.46
2023-01-03T04:11:53.660Z,94.87
2023-01-03T04:12:53.636Z,94.46
2023-01-03T04:13:53.588Z,94.60
2023-01-03T04:14:53.544Z,95.74
2023-01-03T04:15:53.551Z,95.22
2023-01-03T04:16:53.615Z,95.53
2023-01-03T04:17:53.452Z,95.22
2023-01-03T04:18:53.401Z,95.74
2023-01-03T04:19:53.385Z,96.05
2023-01-03T04:20:53.333Z,96.05
2023-01-03T04:21:53.302Z,95.68
2023-01-03T04:22:53.319Z,96.30
2023-01-03T04:23:53.253Z,96.09
2023-01-03T04:24:53.213Z,97.23
2023-01-03T04:25:53.161Z,97.44
2023-01-03T04:26:53.124Z,98.37
2023-01-03T04:27:53.106Z,98.16
2023-01-03T04:28:53.121Z,98.27
2023-01-03T04:29:53.082Z,98.27
2023-01-03T04:30:52.974Z,98.68
2023-01-03T04:31:52.992Z,98.78
2023-01-03T04:32:52.917Z,98.47
2023-01-03T04:33:52.889Z,99.14
2023-01-03T04:34:52.893Z,99.76
2023-01-03T04:35:52.807Z,99.71
2023-01-03T04:36:52.771Z,99.40
2023-01-03T04:37:52.732Z,99.99
2023-01-03T04:38:52.693Z,99.92
2023-01-03T04:39:52.655Z,99.92
2023-01-03T04:40:52.697Z,99.99
2023-01-03T04:41:52.625Z,99.96
2023-01-03T04:42:52.557Z,99.96
2023-01-03T04:43:52.600Z,99.92
2023-01-03T04:44:52.477Z,99.82
2023-01-03T04:45:52.516Z,99.99
2023-01-03T04:46:53.391Z,99.92
2023-01-03T04:47:52.401Z,99.99
2023-01-03T04:48:52.335Z,99.99
2023-01-03T04:49:52.335Z,99.99
2023-01-03T04:50:52.275Z,99.99
2023-01-03T04:51:52.288Z,99.86
2023-01-03T04:52:52.610Z,99.65
2023-01-03T04:53:53.031Z,99.96
2023-01-03T04:54:52.257Z,99.96
2023-01-03T04:55:52.151Z,99.65
2023-01-03T04:56:52.056Z,99.99
2023-01-03T04:57:52.029Z,99.80
2023-01-03T04:58:52.909Z,99.99
2023-01-03T04:59:51.977Z,99.76
2023-01-03T05:00:52.665Z,99.91
2023-01-03T05:01:52.317Z,99.91
2023-01-03T05:02:51.858Z,99.91
2023-01-03T05:03:51.899Z,99.99
2023-01-03T05:04:51.777Z,99.99
2023-01-03T05:05:51.739Z,99.99
2023-01-03T05:06:51.765Z,99.99
2023-01-03T05:07:51.653Z,99.95
2023-01-03T05:08:51.633Z,99.99
2023-01-03T05:09:51.574Z,99.99
2023-01-03T05:10:51.598Z,99.99
2023-01-03T05:11:51.507Z,99.99
2023-01-03T05:12:51.538Z,99.99
2023-01-03T05:13:51.456Z,99.99
2023-01-03T05:14:51.395Z,99.99
2023-01-03T05:15:51.370Z,99.99
2023-01-03T05:16:51.415Z,99.99
2023-01-03T05:17:51.293Z,99.99
2023-01-03T05:18:51.340Z,99.99
2023-01-03T05:19:51.231Z,99.99
2023-01-03T05:20:51.176Z,99.99
2023-01-03T05:21:51.153Z,99.99
2023-01-03T05:22:51.114Z,99.99
2023-01-03T05:23:51.072Z,99.99
2023-01-03T05:24:51.104Z,99.85
2023-01-03T05:25:51.014Z,99.99
2023-01-03T05:26:50.965Z,99.95
2023-01-03T05:27:50.928Z,99.99
2023-01-03T05:28:50.904Z,99.99
2023-01-03T05:29:50.920Z,99.99
2023-01-03T05:30:50.823Z,99.74
2023-01-03T05:31:50.872Z,99.74
2023-01-03T05:32:50.742Z,99.79
2023-01-03T05:33:50.715Z,99.99
2023-01-03T05:34:50.679Z,99.90
2023-01-03T05:35:50.728Z,99.99
2023-01-03T05:36:50.629Z,99.99
2023-01-03T05:37:50.570Z,99.99
2023-01-03T05:38:50.533Z,99.99
2023-01-03T05:39:50.502Z,99.99
2023-01-03T05:40:50.457Z,99.99
2023-01-03T05:41:50.490Z,99.99
2023-01-03T05:42:50.450Z,99.99
2023-01-03T05:43:50.355Z,99.99
2023-01-03T05:44:50.332Z,99.99
2023-01-03T05:45:50.399Z,99.99
2023-01-03T05:46:50.343Z,99.99
2023-01-03T05:47:50.336Z,99.99
2023-01-03T05:48:50.232Z,99.99
2023-01-03T05:49:50.242Z,99.99
2023-01-03T05:50:51.066Z,99.99
2023-01-03T05:51:50.142Z,99.99
2023-01-03T05:52:50.592Z,99.99
2023-01-03T05:53:50.100Z,99.99
2023-01-03T05:54:50.925Z,99.99
2023-01-03T05:55:49.984Z,99.99
2023-01-03T05:56:49.940Z,99.99
2023-01-03T05:57:49.901Z,99.99
2023-01-03T05:58:52.921Z,99.99
2023-01-03T05:59:49.778Z,99.99
2023-01-03T06:00:49.744Z,99.99
2023-01-03T06:01:49.839Z,99.99
2023-01-03T06:02:49.702Z,99.99
2023-01-03T06:03:49.634Z,99.99
2023-01-03T06:04:49.698Z,99.99
2023-01-03T06:05:50.574Z,99.99
2023-01-03T06:06:49.525Z,99.99
2023-01-03T06:07:49.488Z,99.99
2023-01-03T06:08:49.470Z,99.99
2023-01-03T06:09:49.405Z,99.99
2023-01-03T06:10:49.419Z,99.99
2023-01-03T06:11:49.345Z,99.99
2023-01-03T06:12:49.296Z,99.99
2023-01-03T06:13:49.271Z,99.99
2023-01-03T06:14:49.240Z,99.99
2023-01-03T06:15:49.187Z,99.99
2023-01-03T06:16:49.260Z,99.99
2023-01-03T06:17:49.137Z,99.99
2023-01-03T06:18:49.078Z,99.99
2023-01-03T06:19:49.135Z,99.99
2023-01-03T06:20:49.008Z,99.99
2023-01-03T06:21:48.971Z,99.99
2023-01-03T06:22:48.997Z,99.99
2023-01-03T06:23:48.898Z,99.99
2023-01-03T06:24:48.873Z,99.99
2023-01-03T06:25:48.820Z,99.99
2023-01-03T06:26:48.789Z,99.99
2023-01-03T06:27:48.756Z,99.99
2023-01-03T06:28:48.781Z,99.99
2023-01-03T06:29:48.682Z,99.99
2023-01-03T06:30:48.693Z,99.99
2023-01-03T06:31:48.609Z,99.99
2023-01-03T06:32:48.567Z,99.99
2023-01-03T06:33:48.567Z,99.99
2023-01-03T06:34:48.552Z,99.99
2023-01-03T06:35:48.467Z,99.99
2023-01-03T06:36:48.426Z,99.99
2023-01-03T06:37:48.387Z,99.99
2023-01-03T06:38:48.361Z,99.99
2023-01-03T06:39:48.618Z,99.99
2023-01-03T06:40:48.279Z,99.99
2023-01-03T06:41:48.307Z,99.99
2023-01-03T06:42:48.344Z,99.99
2023-01-03T06:43:48.221Z,99.99
2023-01-03T06:44:48.202Z,99.99
2023-01-03T06:45:48.294Z,99.99
2023-01-03T06:46:48.304Z,99.99
2023-01-03T06:47:48.067Z,99.99
2023-01-03T06:48:48.061Z,99.99
2023-01-03T06:49:47.987Z,99.99
2023-01-03T06:50:47.968Z,99.99
2023-01-03T06:51:47.992Z,99.99
2023-01-03T06:52:47.864Z,99.99
2023-01-03T06:53:47.798Z,99.99
2023-01-03T06:54:47.772Z,99.99
2023-01-03T06:55:54.391Z,99.99
2023-01-03T06:56:47.693Z,99.99
2023-01-03T06:57:47.718Z,99.99
2023-01-03T06:58:47.627Z,99.99
2023-01-03T06:59:47.589Z,99.99
2023-01-03T07:00:47.546Z,99.99
2023-01-03T07:01:47.584Z,99.99
2023-01-03T07:02:47.552Z,99.99
2023-01-03T07:03:47.504Z,99.99
2023-01-03T07:04:47.484Z,99.99
2023-01-03T07:05:47.370Z,99.99
2023-01-03T07:06:47.335Z,99.99
2023-01-03T07:07:47.294Z,99.99
2023-01-03T07:08:48.677Z,99.99
2023-01-03T07:09:47.283Z,99.99
2023-01-03T07:10:47.205Z,99.99
2023-01-03T07:11:47.149Z,99.99
2023-01-03T07:12:47.124Z,99.99
2023-01-03T07:13:47.064Z,99.99
2023-01-03T07:14:47.039Z,99.99
2023-01-03T07:15:47.162Z,99.99
2023-01-03T07:16:46.959Z,99.99
2023-01-03T07:17:46.930Z,99.99
2023-01-03T07:18:52.841Z,99.99
2023-01-03T07:19:46.859Z,99.99
2023-01-03T07:20:46.823Z,99.99
2023-01-03T07:21:46.853Z,99.99
2023-01-03T07:22:46.740Z,99.99
2023-01-03T07:23:46.709Z,99.99
2023-01-03T07:24:46.669Z,99.99
2023-01-03T07:25:46.626Z,99.99
2023-01-03T07:26:46.587Z,99.99
2023-01-03T07:27:46.619Z,99.99
2023-01-03T07:28:46.529Z,99.99
2023-01-03T07:29:46.520Z,99.99
2023-01-03T07:30:46.527Z,99.99
2023-01-03T07:31:46.465Z,99.99
2023-01-03T07:32:46.380Z,99.99
2023-01-03T07:33:46.412Z,99.99
2023-01-03T07:34:46.303Z,99.99
2023-01-03T07:35:46.262Z,99.99
2023-01-03T07:36:46.237Z,99.99
2023-01-03T07:37:46.209Z,99.99
2023-01-03T07:38:46.171Z,99.99
2023-01-03T07:39:46.178Z,99.99
2023-01-03T07:40:46.099Z,99.99
2023-01-03T07:41:46.038Z,99.99
2023-01-03T07:42:46.010Z,99.99
2023-01-03T07:43:45.993Z,99.99
2023-01-03T07:44:45.979Z,99.99
2023-01-03T07:45:46.047Z,99.99
2023-01-03T07:46:46.008Z,99.99
2023-01-03T07:47:45.860Z,99.99
2023-01-03T07:48:45.828Z,99.99
2023-01-03T07:49:45.774Z,99.99
2023-01-03T07:50:45.847Z,99.99
2023-01-03T07:51:45.814Z,99.99
2023-01-03T07:52:45.677Z,99.99
2023-01-03T07:53:45.651Z,99.99
2023-01-03T07:54:45.581Z,99.99
2023-01-03T07:55:45.605Z,99.99
2023-01-03T07:56:46.438Z,99.99
2023-01-03T07:57:45.568Z,99.99
2023-01-03T07:58:45.453Z,99.99
2023-01-03T07:59:45.381Z,99.99
2023-01-03T08:00:45.347Z,99.99
2023-01-03T08:01:45.404Z,99.99
2023-01-03T08:02:45.479Z,99.99
2023-01-03T08:03:45.317Z,99.99
2023-01-03T08:04:45.332Z,99.99
2023-01-03T08:05:45.157Z,99.99
2023-01-03T08:06:45.127Z,99.99
2023-01-03T08:07:45.088Z,99.99
2023-01-03T08:08:45.051Z,99.99
2023-01-03T08:09:45.044Z,99.99
2023-01-03T08:10:45.100Z,99.99
2023-01-03T08:11:44.941Z,99.99
2023-01-03T08:12:44.917Z,99.99
2023-01-03T08:13:44.916Z,99.99
2023-01-03T08:14:44.840Z,99.99
2023-01-03T08:15:44.842Z,99.99
2023-01-03T08:16:44.843Z,99.99
2023-01-03T08:17:44.777Z,99.99
2023-01-03T08:18:44.692Z,99.99
2023-01-03T08:19:45.989Z,99.99
2023-01-03T08:20:44.611Z,99.99
2023-01-03T08:21:44.574Z,99.99
2023-01-03T08:22:44.607Z,99.99
2023-01-03T08:23:44.514Z,99.99
2023-01-03T08:24:44.467Z,99.99
2023-01-03T08:25:44.432Z,99.99
2023-01-03T08:26:44.401Z,99.99
2023-01-03T08:27:50.047Z,99.99
2023-01-03T08:28:44.407Z,99.99
2023-01-03T08:29:44.292Z,99.99
2023-01-03T08:30:44.260Z,99.99
2023-01-03T08:31:44.325Z,99.99
2023-01-03T08:32:44.171Z,99.99
2023-01-03T08:33:44.142Z,99.99
2023-01-03T08:34:44.214Z,99.99
2023-01-03T08:35:44.087Z,99.99
2023-01-03T08:36:44.077Z,99.99
2023-01-03T08:37:43.995Z,99.99
2023-01-03T08:38:44.072Z,99.99
2023-01-03T08:39:43.971Z,99.99
2023-01-03T08:40:44.048Z,99.99
2023-01-03T08:41:43.884Z,99.99
2023-01-03T08:42:43.961Z,99.99
2023-01-03T08:43:43.826Z,99.99
2023-01-03T08:44:43.761Z,99.99
2023-01-03T08:45:43.846Z,99.99
2023-01-03T08:46:44.183Z,99.99
2023-01-03T08:47:43.710Z,99.99
2023-01-03T08:48:44.461Z,99.99
2023-01-03T08:49:50.456Z,99.99
2023-01-03T08:50:43.552Z,99.99
2023-01-03T08:51:43.477Z,99.99
2023-01-03T08:52:43.519Z,99.99
2023-01-03T08:53:43.405Z,99.99
2023-01-03T08:54:43.377Z,99.99
2023-01-03T08:55:43.340Z,99.99
2023-01-03T08:56:43.310Z,99.99
2023-01-03T08:57:43.270Z,99.99
2023-01-03T08:58:43.275Z,99.99
2023-01-03T08:59:43.201Z,99.99
2023-01-03T09:00:43.153Z,99.99
2023-01-03T09:01:43.355Z,99.99
2023-01-03T09:02:43.312Z,99.79
2023-01-03T09:03:43.207Z,99.99
2023-01-03T09:04:43.083Z,99.99
2023-01-03T09:05:42.970Z,99.99
2023-01-03T09:06:42.932Z,99.99
2023-01-03T09:07:42.928Z,99.99
2023-01-03T09:08:42.867Z,99.74
2023-01-03T09:09:42.827Z,99.74
2023-01-03T09:10:47.482Z,99.23
2023-01-03T09:11:42.754Z,98.87
2023-01-03T09:12:42.758Z,99.08
2023-01-03T09:13:42.703Z,98.77
2023-01-03T09:14:42.667Z,99.18
2023-01-03T09:15:42.644Z,98.87
2023-01-03T09:16:48.586Z,98.93
2023-01-03T09:17:42.602Z,98.35
2023-01-03T09:18:42.497Z,98.56
2023-01-03T09:19:42.490Z,98.25
2023-01-03T09:20:42.455Z,98.31
2023-01-03T09:21:42.415Z,98.52
2023-01-03T09:22:42.427Z,98.31
2023-01-03T09:23:42.393Z,98.31
2023-01-03T09:24:42.319Z,98.21
2023-01-03T09:25:42.285Z,97.96
2023-01-03T09:26:42.236Z,97.96
2023-01-03T09:27:42.952Z,97.91
2023-01-03T09:28:42.270Z,97.50
2023-01-03T09:29:42.168Z,97.19
2023-01-03T09:30:42.952Z,96.52
2023-01-03T09:31:42.086Z,96.31
2023-01-03T09:32:41.998Z,96.01
2023-01-03T09:33:41.991Z,95.03
2023-01-03T09:34:41.988Z,96.02
2023-01-03T09:35:41.886Z,94.99
2023-01-03T09:36:41.851Z,95.09
2023-01-03T09:37:48.541Z,94.23
2023-01-03T09:38:41.771Z,94.32
2023-01-03T09:39:41.750Z,93.56
2023-01-03T09:40:41.786Z,93.66
2023-01-03T09:41:41.680Z,92.74
2023-01-03T09:42:41.641Z,93.11
2023-01-03T09:43:41.729Z,92.38
2023-01-03T09:44:41.567Z,92.18
2023-01-03T09:45:41.538Z,91.97
2023-01-03T09:46:41.620Z,91.77
2023-01-03T09:47:41.459Z,91.62
2023-01-03T09:48:41.756Z,91.11
2023-01-03T09:50:04.699Z,91.00
2023-01-03T09:51:15.829Z,91.06
2023-01-03T09:51:41.317Z,90.66
2023-01-03T09:52:41.291Z,90.45
2023-01-03T09:53:41.253Z,90.39
2023-01-03T09:54:41.264Z,90.18
2023-01-03T09:55:41.188Z,89.52
2023-01-03T09:56:41.151Z,89.83
2023-01-03T09:57:41.113Z,90.34
2023-01-03T09:58:41.079Z,90.14
2023-01-03T09:59:41.124Z,90.14
2023-01-03T10:00:41.068Z,89.07
2023-01-03T10:01:41.147Z,88.96
2023-01-03T10:02:41.092Z,88.76
2023-01-03T10:03:46.379Z,89.38
2023-01-03T10:04:40.871Z,89.17
2023-01-03T10:05:40.899Z,89.23
2023-01-03T10:06:40.810Z,88.82
2023-01-03T10:07:40.762Z,89.44
2023-01-03T10:08:40.735Z,89.50
2023-01-03T10:09:40.694Z,88.37
2023-01-03T10:10:40.680Z,88.00
2023-01-03T10:11:40.693Z,87.85
2023-01-03T10:12:40.590Z,88.98
2023-01-03T10:13:40.556Z,88.82
2023-01-03T10:14:40.532Z,89.54
2023-01-03T10:15:40.539Z,88.92
2023-01-03T10:16:41.193Z,88.62
2023-01-03T10:17:40.525Z,88.10
2023-01-03T10:18:40.438Z,88.51
2023-01-03T10:19:40.388Z,88.62
2023-01-03T10:20:40.366Z,89.34
2023-01-03T10:21:40.356Z,89.23
2023-01-03T10:22:40.290Z,88.51
2023-01-03T10:23:40.693Z,88.72
2023-01-03T10:24:40.237Z,88.72
2023-01-03T10:25:40.212Z,89.03
2023-01-03T10:26:40.222Z,88.78
2023-01-03T10:27:40.121Z,88.68
2023-01-03T10:28:40.047Z,88.06
2023-01-03T10:29:40.090Z,88.17
2023-01-03T10:30:39.995Z,88.27
2023-01-03T10:31:39.996Z,88.78
2023-01-03T10:32:39.919Z,89.09
2023-01-03T10:33:39.882Z,88.84
2023-01-03T10:34:39.868Z,88.57
2023-01-03T10:35:39.886Z,88.12
2023-01-03T10:36:39.775Z,87.75
2023-01-03T10:37:39.740Z,88.23
2023-01-03T10:38:46.377Z,88.23
2023-01-03T10:39:42.596Z,88.27
2023-01-03T10:40:39.636Z,88.17
2023-01-03T10:41:39.672Z,88.06
2023-01-03T10:42:39.620Z,88.43
2023-01-03T10:43:39.633Z,87.82
2023-01-03T10:44:39.553Z,87.85
2023-01-03T10:45:43.772Z,87.96
2023-01-03T10:46:39.555Z,88.33
2023-01-03T10:47:39.493Z,88.47
2023-01-03T10:48:59.951Z,87.61
2023-01-03T10:49:39.432Z,87.88
2023-01-03T10:50:39.405Z,87.37
2023-01-03T10:51:42.830Z,87.46
2023-01-03T10:52:39.301Z,87.40
2023-01-03T10:53:39.207Z,87.30
2023-01-03T10:54:39.164Z,87.37
2023-01-03T10:55:39.133Z,87.37
2023-01-03T10:56:39.107Z,87.46
2023-01-03T10:57:39.157Z,87.16
2023-01-03T10:58:39.043Z,86.54
2023-01-03T10:59:39.031Z,86.54
2023-01-03T11:00:38.965Z,86.24
2023-01-03T11:01:39.046Z,86.38
2023-01-03T11:02:39.014Z,86.85
2023-01-03T11:03:39.016Z,86.24
2023-01-03T11:04:38.835Z,86.24
2023-01-03T11:05:38.789Z,85.93
2023-01-03T11:06:38.782Z,86.13
2023-01-03T11:07:38.723Z,86.07
2023-01-03T11:08:38.709Z,86.17
2023-01-03T11:09:38.729Z,86.38
2023-01-03T11:10:38.638Z,85.86
2023-01-03T11:11:38.616Z,86.48
2023-01-03T11:12:38.555Z,85.04
2023-01-03T11:13:38.557Z,84.63
2023-01-03T11:14:38.503Z,84.94
2023-01-03T11:15:39.348Z,85.60
2023-01-03T11:16:38.467Z,85.49
2023-01-03T11:17:38.393Z,86.15
2023-01-03T11:18:38.366Z,86.56
2023-01-03T11:19:38.325Z,86.11
2023-01-03T11:20:38.297Z,86.56
2023-01-03T11:21:38.309Z,86.35
2023-01-03T11:22:38.364Z,86.56
2023-01-03T11:23:38.199Z,86.35
2023-01-03T11:24:38.158Z,86.15
2023-01-03T11:25:38.136Z,86.66
2023-01-03T11:26:38.092Z,86.56
2023-01-03T11:27:38.121Z,86.87
2023-01-03T11:28:38.119Z,86.46
2023-01-03T11:29:38.033Z,87.18
2023-01-03T11:30:37.977Z,87.07
2023-01-03T11:31:37.973Z,86.60
2023-01-03T11:32:37.916Z,87.18
2023-01-03T11:33:37.937Z,86.77
2023-01-03T11:35:11.592Z,87.49
2023-01-03T11:35:37.775Z,87.22
2023-01-03T11:36:37.740Z,87.18
2023-01-03T11:37:38.992Z,87.07
2023-01-03T11:38:37.700Z,86.87
2023-01-03T11:39:37.729Z,86.80
2023-01-03T11:40:40.481Z,87.63
2023-01-03T11:41:37.623Z,87.73
2023-01-03T11:42:37.586Z,87.42
2023-01-03T11:43:37.596Z,87.84
2023-01-03T11:44:37.536Z,86.97
2023-01-03T11:45:40.667Z,86.87
2023-01-03T11:46:37.491Z,86.87
2023-01-03T11:47:37.412Z,86.87
2023-01-03T11:48:37.349Z,86.35
2023-01-03T11:49:38.480Z,86.46
2023-01-03T11:50:37.321Z,86.25
2023-01-03T11:51:37.980Z,86.87
2023-01-03T11:52:37.209Z,85.39
2023-01-03T11:53:37.169Z,85.39
2023-01-03T11:54:37.128Z,84.94
2023-01-03T11:55:37.101Z,84.94
2023-01-03T11:56:37.072Z,84.88
2023-01-03T11:57:37.091Z,85.39
2023-01-03T11:58:36.998Z,85.18
2023-01-03T11:59:36.965Z,85.53
2023-01-03T12:00:36.925Z,85.84
2023-01-03T12:01:39.568Z,85.63
2023-01-03T12:02:36.909Z,86.35
2023-01-03T12:03:36.991Z,85.60
2023-01-03T12:04:36.866Z,85.66
2023-01-03T12:05:36.761Z,85.04
2023-01-03T12:06:36.719Z,84.90
2023-01-03T12:07:47.506Z,84.18
2023-01-03T12:08:36.656Z,83.87
2023-01-03T12:09:36.680Z,84.49
2023-01-03T12:10:36.592Z,83.98
2023-01-03T12:11:36.550Z,84.42
2023-01-03T12:12:36.521Z,84.84
2023-01-03T12:13:36.483Z,84.98
2023-01-03T12:14:36.463Z,84.88
2023-01-03T12:15:36.544Z,84.81
2023-01-03T12:16:36.440Z,85.43
2023-01-03T12:17:36.348Z,85.33
2023-01-03T12:18:36.321Z,85.47
2023-01-03T12:19:36.283Z,85.57
2023-01-03T12:20:36.249Z,85.98
2023-01-03T12:21:36.275Z,86.40
2023-01-03T12:22:36.184Z,86.19
2023-01-03T12:23:36.144Z,85.26
2023-01-03T12:24:36.107Z,85.26
2023-01-03T12:25:36.120Z,84.64
2023-01-03T12:26:36.042Z,84.75
2023-01-03T12:27:36.077Z,84.85
2023-01-03T12:28:36.054Z,84.85
2023-01-03T12:29:35.942Z,84.85
2023-01-03T12:30:35.914Z,85.02
2023-01-03T12:31:35.939Z,84.44
2023-01-03T12:32:35.841Z,84.44
2023-01-03T12:33:35.861Z,84.44
2023-01-03T12:34:35.815Z,84.85
2023-01-03T12:35:35.828Z,84.75
2023-01-03T12:36:35.709Z,84.64
2023-01-03T12:37:35.764Z,84.75
2023-01-03T12:38:36.205Z,84.64
2023-01-03T12:39:41.959Z,84.40
2023-01-03T12:40:35.586Z,84.03
2023-01-03T12:41:35.531Z,84.03
2023-01-03T12:42:35.509Z,84.75
2023-01-03T12:43:35.529Z,84.23
2023-01-03T12:44:35.432Z,84.13
2023-01-03T12:45:35.412Z,83.89
2023-01-03T12:46:35.417Z,83.48
2023-01-03T12:47:35.365Z,83.68
2023-01-03T12:48:35.296Z,83.85
2023-01-03T12:49:35.322Z,83.13
2023-01-03T12:50:35.305Z,83.17
2023-01-03T12:51:35.194Z,83.13